sensor_id;sensor_type;location;lat;lon;timestamp;pressure;altitude;pressure_sealevel;temperature;humidity
35655;BME280;21773;50.010;19.972;2023-04-28T00:00:39;99223.88;;;9.52;47.16
35655;BME280;21773;50.010;19.972;2023-04-28T00:03:43;99230.88;;;9.53;47.16
35655;BME280;21773;50.010;19.972;2023-04-28T00:06:47;99233.19;;;9.56;47.32
35655;BME280;21773;50.010;19.972;2023-04-28T00:09:50;99233.59;;;9.53;47.30
35655;BME280;21773;50.010;19.972;2023-04-28T00:12:55;99247.25;;;9.58;47.49
35655;BME280;21773;50.010;19.972;2023-04-28T00:15:58;99250.38;;;9.69;48.25
35655;BME280;21773;50.010;19.972;2023-04-28T00:19:02;99246.44;;;9.84;47.66
35655;BME280;21773;50.010;19.972;2023-04-28T00:22:05;99239.19;;;9.78;47.69
35655;BME280;21773;50.010;19.972;2023-04-28T00:25:09;99246.44;;;9.78;47.71
35655;BME280;21773;50.010;19.972;2023-04-28T00:28:14;99248.31;;;9.71;48.02
35655;BME280;21773;50.010;19.972;2023-04-28T00:31:34;99245.81;;;9.56;48.24
35655;BME280;21773;50.010;19.972;2023-04-28T00:34:38;99241.25;;;9.50;47.74
35655;BME280;21773;50.010;19.972;2023-04-28T00:37:41;99207.91;;;9.18;48.34
35655;BME280;21773;50.010;19.972;2023-04-28T00:40:45;99240.41;;;9.23;48.47
35655;BME280;21773;50.010;19.972;2023-04-28T00:43:49;99234.16;;;9.09;48.75
35655;BME280;21773;50.010;19.972;2023-04-28T00:46:53;99236.81;;;8.96;49.10
35655;BME280;21773;50.010;19.972;2023-04-28T00:49:56;99231.63;;;8.88;49.22
35655;BME280;21773;50.010;19.972;2023-04-28T00:53:00;99240.31;;;8.84;49.17
35655;BME280;21773;50.010;19.972;2023-04-28T00:56:06;99232.47;;;8.89;49.22
35655;BME280;21773;50.010;19.972;2023-04-28T00:59:11;99233.72;;;8.93;49.19
35655;BME280;21773;50.010;19.972;2023-04-28T01:02:14;99233.28;;;8.89;49.41
35655;BME280;21773;50.010;19.972;2023-04-28T01:05:19;99233.72;;;8.93;49.20
35655;BME280;21773;50.010;19.972;2023-04-28T01:08:23;99235.38;;;8.94;49.45
35655;BME280;21773;50.010;19.972;2023-04-28T01:11:30;99229.78;;;8.95;49.64
35655;BME280;21773;50.010;19.972;2023-04-28T01:14:41;99232.50;;;9.02;49.11
35655;BME280;21773;50.010;19.972;2023-04-28T01:17:45;99227.53;;;9.05;48.79
35655;BME280;21773;50.010;19.972;2023-04-28T01:20:49;99225.47;;;9.14;48.46
35655;BME280;21773;50.010;19.972;2023-04-28T01:23:54;99234.81;;;9.18;48.51
35655;BME280;21773;50.010;19.972;2023-04-28T01:26:57;99232.94;;;9.19;48.53
35655;BME280;21773;50.010;19.972;2023-04-28T01:30:02;99222.19;;;9.25;48.33
35655;BME280;21773;50.010;19.972;2023-04-28T01:33:05;99230.06;;;9.33;48.15
35655;BME280;21773;50.010;19.972;2023-04-28T01:36:09;99236.69;;;9.37;47.73
35655;BME280;21773;50.010;19.972;2023-04-28T01:39:14;99235.22;;;9.35;48.11
35655;BME280;21773;50.010;19.972;2023-04-28T01:42:17;99236.47;;;9.32;48.39
35655;BME280;21773;50.010;19.972;2023-04-28T01:45:20;99239.38;;;9.31;48.57
35655;BME280;21773;50.010;19.972;2023-04-28T01:48:24;99239.38;;;9.31;48.63
35655;BME280;21773;50.010;19.972;2023-04-28T01:51:27;99240.41;;;9.36;48.66
35655;BME280;21773;50.010;19.972;2023-04-28T01:54:32;99237.94;;;9.41;48.65
35655;BME280;21773;50.010;19.972;2023-04-28T01:57:36;99243.34;;;9.48;48.27
35655;BME280;21773;50.010;19.972;2023-04-28T02:00:39;99239.81;;;9.47;48.31
35655;BME280;21773;50.010;19.972;2023-04-28T02:03:43;99230.91;;;9.47;48.63
35655;BME280;21773;50.010;19.972;2023-04-28T02:06:47;99232.34;;;9.49;48.22
35655;BME280;21773;50.010;19.972;2023-04-28T02:09:51;99234.00;;;9.50;47.96
35655;BME280;21773;50.010;19.972;2023-04-28T02:12:55;99234.66;;;9.52;47.48
35655;BME280;21773;50.010;19.972;2023-04-28T02:15:59;99233.19;;;9.56;48.42
35655;BME280;21773;50.010;19.972;2023-04-28T02:19:03;99241.88;;;9.58;48.31
35655;BME280;21773;50.010;19.972;2023-04-28T02:22:06;99237.53;;;9.57;48.11
35655;BME280;21773;50.010;19.972;2023-04-28T02:25:11;99228.44;;;9.52;48.08
35655;BME280;21773;50.010;19.972;2023-04-28T02:28:15;99238.97;;;9.53;48.28
35655;BME280;21773;50.010;19.972;2023-04-28T02:31:18;99233.81;;;9.52;48.38
35655;BME280;21773;50.010;19.972;2023-04-28T02:34:22;99238.56;;;9.56;48.02
35655;BME280;21773;50.010;19.972;2023-04-28T02:37:25;99244.78;;;9.57;48.24
35655;BME280;21773;50.010;19.972;2023-04-28T02:40:30;99244.56;;;9.58;47.69
35655;BME280;21773;50.010;19.972;2023-04-28T02:43:34;99232.16;;;9.57;47.27
35655;BME280;21773;50.010;19.972;2023-04-28T02:46:37;99236.06;;;9.68;47.12
35655;BME280;21773;50.010;19.972;2023-04-28T02:49:41;99239.41;;;9.70;47.40
35655;BME280;21773;50.010;19.972;2023-04-28T02:52:44;99226.34;;;9.54;47.83
35655;BME280;21773;50.010;19.972;2023-04-28T02:55:51;99235.03;;;9.36;48.50
35655;BME280;21773;50.010;19.972;2023-04-28T02:58:55;99238.31;;;9.25;48.82
35655;BME280;21773;50.010;19.972;2023-04-28T03:01:58;99240.78;;;9.20;48.88
35655;BME280;21773;50.010;19.972;2023-04-28T03:05:01;99240.38;;;9.17;48.84
35655;BME280;21773;50.010;19.972;2023-04-28T03:08:05;99243.69;;;9.12;48.89
35655;BME280;21773;50.010;19.972;2023-04-28T03:11:10;99241.59;;;9.07;49.08
35655;BME280;21773;50.010;19.972;2023-04-28T03:14:14;99231.25;;;9.04;49.20
35655;BME280;21773;50.010;19.972;2023-04-28T03:17:17;99236.19;;;9.01;49.61
35655;BME280;21773;50.010;19.972;2023-04-28T03:20:21;99236.41;;;8.99;49.02
35655;BME280;21773;50.010;19.972;2023-04-28T03:23:25;99242.41;;;9.01;48.90
35655;BME280;21773;50.010;19.972;2023-04-28T03:26:31;99238.06;;;9.00;48.93
35655;BME280;21773;50.010;19.972;2023-04-28T03:29:35;99249.84;;;8.99;48.99
35655;BME280;21773;50.010;19.972;2023-04-28T03:32:38;99243.44;;;9.00;49.03
35655;BME280;21773;50.010;19.972;2023-04-28T03:35:42;99240.16;;;8.98;49.17
35655;BME280;21773;50.010;19.972;2023-04-28T03:38:45;99237.84;;;8.89;49.28
35655;BME280;21773;50.010;19.972;2023-04-28T03:41:50;99248.38;;;8.84;49.36
35655;BME280;21773;50.010;19.972;2023-04-28T03:45:25;99246.72;;;8.83;49.24
35655;BME280;21773;50.010;19.972;2023-04-28T03:48:29;99250.41;;;8.82;49.35
35655;BME280;21773;50.010;19.972;2023-04-28T03:51:32;99252.28;;;8.81;49.36
35655;BME280;21773;50.010;19.972;2023-04-28T03:54:36;99243.19;;;8.82;49.17
35655;BME280;21773;50.010;19.972;2023-04-28T03:57:41;99241.97;;;8.91;49.06
35655;BME280;21773;50.010;19.972;2023-04-28T04:00:45;99244.47;;;8.99;49.23
35655;BME280;21773;50.010;19.972;2023-04-28T04:03:48;99246.97;;;9.01;48.95
35655;BME280;21773;50.010;19.972;2023-04-28T04:06:52;99247.56;;;8.96;49.19
35655;BME280;21773;50.010;19.972;2023-04-28T04:09:56;99248.38;;;8.90;49.41
35655;BME280;21773;50.010;19.972;2023-04-28T04:13:01;99250.22;;;8.90;49.56
35655;BME280;21773;50.010;19.972;2023-04-28T04:16:05;99248.00;;;8.93;49.68
35655;BME280;21773;50.010;19.972;2023-04-28T04:19:09;99243.84;;;8.97;49.86
35655;BME280;21773;50.010;19.972;2023-04-28T04:22:17;99227.31;;;8.94;49.83
35655;BME280;21773;50.010;19.972;2023-04-28T04:25:21;99249.66;;;9.14;49.47
35655;BME280;21773;50.010;19.972;2023-04-28T04:28:27;99240.59;;;9.22;49.28
35655;BME280;21773;50.010;19.972;2023-04-28T04:31:30;99241.03;;;9.32;49.27
35655;BME280;21773;50.010;19.972;2023-04-28T04:34:34;99241.88;;;9.45;49.45
35655;BME280;21773;50.010;19.972;2023-04-28T04:37:38;99241.47;;;9.62;49.06
35655;BME280;21773;50.010;19.972;2023-04-28T04:40:41;99237.53;;;9.77;48.82
35655;BME280;21773;50.010;19.972;2023-04-28T04:43:46;99234.41;;;9.93;48.60
35655;BME280;21773;50.010;19.972;2023-04-28T04:46:50;99234.38;;;10.13;48.33
35655;BME280;21773;50.010;19.972;2023-04-28T04:49:54;99234.16;;;10.34;47.62
35655;BME280;21773;50.010;19.972;2023-04-28T04:52:58;99228.69;;;10.54;47.02
35655;BME280;21773;50.010;19.972;2023-04-28T04:56:02;99229.44;;;10.74;46.51
35655;BME280;21773;50.010;19.972;2023-04-28T04:59:08;99230.34;;;11.00;45.76
35655;BME280;21773;50.010;19.972;2023-04-28T05:02:31;99229.75;;;11.29;44.61
35655;BME280;21773;50.010;19.972;2023-04-28T05:05:37;99224.00;;;11.50;43.84
35655;BME280;21773;50.010;19.972;2023-04-28T05:08:53;99224.47;;;11.72;43.09
35655;BME280;21773;50.010;19.972;2023-04-28T05:11:57;99232.84;;;11.89;41.29
35655;BME280;21773;50.010;19.972;2023-04-28T05:15:03;99229.13;;;12.08;41.15
35655;BME280;21773;50.010;19.972;2023-04-28T05:18:07;99230.94;;;12.32;40.87
35655;BME280;21773;50.010;19.972;2023-04-28T05:21:12;99230.72;;;12.52;40.13
35655;BME280;21773;50.010;19.972;2023-04-28T05:24:15;99233.81;;;12.74;39.85
35655;BME280;21773;50.010;19.972;2023-04-28T05:27:19;99233.78;;;12.92;39.61
35655;BME280;21773;50.010;19.972;2023-04-28T05:30:24;99233.31;;;13.13;39.42
35655;BME280;21773;50.010;19.972;2023-04-28T05:33:27;99242.00;;;13.33;38.54
35655;BME280;21773;50.010;19.972;2023-04-28T05:36:32;99236.84;;;13.55;38.11
35655;BME280;21773;50.010;19.972;2023-04-28T05:39:35;99232.78;;;13.76;37.62
35655;BME280;21773;50.010;19.972;2023-04-28T05:42:40;99233.84;;;13.98;36.97
35655;BME280;21773;50.010;19.972;2023-04-28T05:45:45;99224.53;;;14.06;35.28
35655;BME280;21773;50.010;19.972;2023-04-28T05:48:48;99231.84;;;14.17;35.35
35655;BME280;21773;50.010;19.972;2023-04-28T05:51:52;99235.38;;;14.29;34.65
35655;BME280;21773;50.010;19.972;2023-04-28T05:54:55;99230.66;;;14.48;34.62
35655;BME280;21773;50.010;19.972;2023-04-28T05:57:58;99232.53;;;14.59;34.55
35655;BME280;21773;50.010;19.972;2023-04-28T06:01:03;99231.19;;;14.73;34.67
35655;BME280;21773;50.010;19.972;2023-04-28T06:04:07;99220.75;;;14.93;34.72
35655;BME280;21773;50.010;19.972;2023-04-28T06:07:10;99231.38;;;15.23;35.30
35655;BME280;21773;50.010;19.972;2023-04-28T06:10:14;99236.41;;;15.59;35.29
35655;BME280;21773;50.010;19.972;2023-04-28T06:13:17;99240.22;;;15.92;34.05
35655;BME280;21773;50.010;19.972;2023-04-28T06:16:22;99227.88;;;16.23;33.53
35655;BME280;21773;50.010;19.972;2023-04-28T06:19:26;99240.53;;;16.51;32.10
35655;BME280;21773;50.010;19.972;2023-04-28T06:22:29;99241.47;;;16.78;32.85
35655;BME280;21773;50.010;19.972;2023-04-28T06:25:33;99236.56;;;17.02;31.64
35655;BME280;21773;50.010;19.972;2023-04-28T06:28:37;99238.75;;;17.26;31.33
35655;BME280;21773;50.010;19.972;2023-04-28T06:31:43;99235.91;;;17.38;30.25
35655;BME280;21773;50.010;19.972;2023-04-28T06:34:47;99235.03;;;17.59;30.78
35655;BME280;21773;50.010;19.972;2023-04-28T06:37:50;99231.19;;;17.87;30.93
35655;BME280;21773;50.010;19.972;2023-04-28T06:40:54;99210.28;;;17.98;29.06
35655;BME280;21773;50.010;19.972;2023-04-28T06:43:58;99241.88;;;18.31;28.91
35655;BME280;21773;50.010;19.972;2023-04-28T06:47:05;99223.63;;;18.36;27.14
35655;BME280;21773;50.010;19.972;2023-04-28T06:50:11;99238.19;;;18.52;27.34
35655;BME280;21773;50.010;19.972;2023-04-28T06:53:14;99229.19;;;18.51;27.04
35655;BME280;21773;50.010;19.972;2023-04-28T06:56:17;99233.19;;;18.39;25.96
35655;BME280;21773;50.010;19.972;2023-04-28T06:59:22;99220.47;;;18.54;26.58
35655;BME280;21773;50.010;19.972;2023-04-28T07:02:26;99220.66;;;18.48;26.11
35655;BME280;21773;50.010;19.972;2023-04-28T07:05:31;99216.09;;;18.53;26.44
35655;BME280;21773;50.010;19.972;2023-04-28T07:08:35;99224.41;;;18.79;25.67
35655;BME280;21773;50.010;19.972;2023-04-28T07:11:39;99215.50;;;19.03;26.51
35655;BME280;21773;50.010;19.972;2023-04-28T07:14:42;99214.19;;;19.41;27.04
35655;BME280;21773;50.010;19.972;2023-04-28T07:17:47;99217.28;;;19.80;26.96
35655;BME280;21773;50.010;19.972;2023-04-28T07:20:50;99209.31;;;20.14;25.73
35655;BME280;21773;50.010;19.972;2023-04-28T07:23:53;99201.88;;;20.50;25.44
35655;BME280;21773;50.010;19.972;2023-04-28T07:26:57;99202.06;;;20.69;23.20
35655;BME280;21773;50.010;19.972;2023-04-28T07:30:02;99198.19;;;20.80;22.75
35655;BME280;21773;50.010;19.972;2023-04-28T07:33:27;99201.06;;;20.24;21.78
35655;BME280;21773;50.010;19.972;2023-04-28T07:36:30;99193.66;;;20.45;21.94
35655;BME280;21773;50.010;19.972;2023-04-28T07:39:34;99189.72;;;20.77;21.59
35655;BME280;21773;50.010;19.972;2023-04-28T07:42:37;99189.97;;;20.85;20.94
35655;BME280;21773;50.010;19.972;2023-04-28T07:45:40;99187.91;;;20.47;20.21
35655;BME280;21773;50.010;19.972;2023-04-28T07:48:48;99190.13;;;20.40;21.69
35655;BME280;21773;50.010;19.972;2023-04-28T07:51:52;99178.13;;;19.85;21.39
35655;BME280;21773;50.010;19.972;2023-04-28T07:54:57;99181.94;;;19.99;21.09
35655;BME280;21773;50.010;19.972;2023-04-28T07:58:00;99182.53;;;19.86;21.28
35655;BME280;21773;50.010;19.972;2023-04-28T08:01:03;99189.38;;;19.73;20.60
35655;BME280;21773;50.010;19.972;2023-04-28T08:04:08;99183.31;;;20.07;21.91
35655;BME280;21773;50.010;19.972;2023-04-28T08:07:13;99182.16;;;20.48;22.28
35655;BME280;21773;50.010;19.972;2023-04-28T08:10:16;99182.75;;;20.35;21.79
35655;BME280;21773;50.010;19.972;2023-04-28T08:13:19;99156.50;;;20.04;21.13
35655;BME280;21773;50.010;19.972;2023-04-28T08:16:23;99176.09;;;20.61;22.46
35655;BME280;21773;50.010;19.972;2023-04-28T08:19:28;99177.31;;;20.89;22.34
35655;BME280;21773;50.010;19.972;2023-04-28T08:22:31;99184.03;;;21.12;21.05
35655;BME280;21773;50.010;19.972;2023-04-28T08:25:34;99174.03;;;21.36;20.61
35655;BME280;21773;50.010;19.972;2023-04-28T08:28:37;99171.94;;;21.62;19.67
35655;BME280;21773;50.010;19.972;2023-04-28T08:31:41;99168.09;;;21.63;19.52
35655;BME280;21773;50.010;19.972;2023-04-28T08:34:46;99171.31;;;21.70;19.64
35655;BME280;21773;50.010;19.972;2023-04-28T08:37:51;99163.44;;;21.64;20.67
35655;BME280;21773;50.010;19.972;2023-04-28T08:40:54;99163.81;;;21.81;19.64
35655;BME280;21773;50.010;19.972;2023-04-28T08:43:57;99165.66;;;21.90;20.09
35655;BME280;21773;50.010;19.972;2023-04-28T08:47:02;99161.03;;;22.15;20.00
35655;BME280;21773;50.010;19.972;2023-04-28T08:50:09;99161.88;;;22.39;19.24
35655;BME280;21773;50.010;19.972;2023-04-28T08:53:13;99161.00;;;22.43;19.54
35655;BME280;21773;50.010;19.972;2023-04-28T08:56:20;99166.63;;;22.81;19.37
35655;BME280;21773;50.010;19.972;2023-04-28T08:59:26;99154.81;;;23.37;19.40
35655;BME280;21773;50.010;19.972;2023-04-28T09:02:30;99151.66;;;23.81;19.05
35655;BME280;21773;50.010;19.972;2023-04-28T09:05:35;99149.81;;;24.22;19.29
35655;BME280;21773;50.010;19.972;2023-04-28T09:08:38;99135.03;;;24.59;18.77
35655;BME280;21773;50.010;19.972;2023-04-28T09:11:50;99137.59;;;24.28;17.69
35655;BME280;21773;50.010;19.972;2023-04-28T09:14:57;99145.44;;;23.56;17.91
35655;BME280;21773;50.010;19.972;2023-04-28T09:18:01;99135.63;;;23.31;18.56
35655;BME280;21773;50.010;19.972;2023-04-28T09:21:07;99137.94;;;23.43;19.16
35655;BME280;21773;50.010;19.972;2023-04-28T09:24:24;99123.63;;;23.92;20.46
35655;BME280;21773;50.010;19.972;2023-04-28T09:27:28;99119.53;;;24.36;18.61
35655;BME280;21773;50.010;19.972;2023-04-28T09:30:38;99126.63;;;24.78;19.26
35655;BME280;21773;50.010;19.972;2023-04-28T09:33:55;99123.69;;;25.24;18.97
35655;BME280;21773;50.010;19.972;2023-04-28T09:37:13;99113.09;;;25.62;18.75
35655;BME280;21773;50.010;19.972;2023-04-28T09:40:17;99109.56;;;25.92;18.82
35655;BME280;21773;50.010;19.972;2023-04-28T09:43:29;99097.25;;;26.29;17.67
35655;BME280;21773;50.010;19.972;2023-04-28T09:46:33;99101.72;;;26.64;17.73
35655;BME280;21773;50.010;19.972;2023-04-28T09:49:52;99092.97;;;26.71;16.25
35655;BME280;21773;50.010;19.972;2023-04-28T09:52:57;99094.91;;;26.79;17.38
35655;BME280;21773;50.010;19.972;2023-04-28T09:56:02;99087.72;;;26.44;16.40
35655;BME280;21773;50.010;19.972;2023-04-28T09:59:07;99086.97;;;25.90;17.34
35655;BME280;21773;50.010;19.972;2023-04-28T10:02:11;99079.53;;;25.99;17.93
35655;BME280;21773;50.010;19.972;2023-04-28T10:05:36;99072.44;;;26.15;16.72
35655;BME280;21773;50.010;19.972;2023-04-28T10:08:42;99066.38;;;26.05;16.84
35655;BME280;21773;50.010;19.972;2023-04-28T10:11:49;99078.88;;;25.94;16.89
35655;BME280;21773;50.010;19.972;2023-04-28T10:14:52;99077.13;;;26.06;17.05
35655;BME280;21773;50.010;19.972;2023-04-28T10:17:56;99071.28;;;26.08;16.81
35655;BME280;21773;50.010;19.972;2023-04-28T10:21:02;99047.44;;;26.20;16.58
35655;BME280;21773;50.010;19.972;2023-04-28T10:24:14;99071.66;;;26.63;16.58
35655;BME280;21773;50.010;19.972;2023-04-28T10:27:20;99060.22;;;26.47;16.10
35655;BME280;21773;50.010;19.972;2023-04-28T10:30:29;99064.41;;;25.66;16.47
35655;BME280;21773;50.010;19.972;2023-04-28T10:33:33;99057.41;;;25.60;17.01
35655;BME280;21773;50.010;19.972;2023-04-28T10:36:49;99056.81;;;25.71;16.55
35655;BME280;21773;50.010;19.972;2023-04-28T10:40:31;99042.91;;;26.24;18.36
35655;BME280;21773;50.010;19.972;2023-04-28T10:43:36;99031.69;;;26.86;18.62
35655;BME280;21773;50.010;19.972;2023-04-28T10:46:59;99040.75;;;27.38;17.88
35655;BME280;21773;50.010;19.972;2023-04-28T10:50:07;99033.06;;;27.70;16.35
35655;BME280;21773;50.010;19.972;2023-04-28T10:53:10;99025.63;;;27.91;16.76
35655;BME280;21773;50.010;19.972;2023-04-28T10:56:16;99022.28;;;27.68;15.11
35655;BME280;21773;50.010;19.972;2023-04-28T10:59:26;99018.13;;;27.19;15.66
35655;BME280;21773;50.010;19.972;2023-04-28T11:02:40;99014.75;;;26.88;15.50
35655;BME280;21773;50.010;19.972;2023-04-28T11:06:18;99003.00;;;26.65;16.37
35655;BME280;21773;50.010;19.972;2023-04-28T11:09:47;99003.00;;;26.82;16.37
35655;BME280;21773;50.010;19.972;2023-04-28T11:13:26;99003.28;;;26.38;16.01
35655;BME280;21773;50.010;19.972;2023-04-28T11:16:47;98994.53;;;26.05;15.90
35655;BME280;21773;50.010;19.972;2023-04-28T11:19:52;99003.88;;;26.17;16.65
35655;BME280;21773;50.010;19.972;2023-04-28T11:22:58;98997.59;;;26.43;17.01
35655;BME280;21773;50.010;19.972;2023-04-28T11:26:02;98989.00;;;26.70;17.21
35655;BME280;21773;50.010;19.972;2023-04-28T11:29:07;98993.25;;;26.76;15.40
35655;BME280;21773;50.010;19.972;2023-04-28T11:32:10;98990.66;;;26.97;16.79
35655;BME280;21773;50.010;19.972;2023-04-28T11:35:14;98987.53;;;27.15;16.60
35655;BME280;21773;50.010;19.972;2023-04-28T11:38:17;98990.25;;;27.33;16.60
35655;BME280;21773;50.010;19.972;2023-04-28T11:41:21;98984.38;;;27.51;16.34
35655;BME280;21773;50.010;19.972;2023-04-28T11:44:27;98977.97;;;27.68;16.22
35655;BME280;21773;50.010;19.972;2023-04-28T11:47:32;98975.53;;;27.67;15.53
35655;BME280;21773;50.010;19.972;2023-04-28T11:50:36;98962.97;;;27.69;16.69
35655;BME280;21773;50.010;19.972;2023-04-28T11:53:40;98968.13;;;27.33;15.44
35655;BME280;21773;50.010;19.972;2023-04-28T11:56:44;98967.19;;;26.86;15.74
35655;BME280;21773;50.010;19.972;2023-04-28T11:59:49;98965.59;;;25.94;16.43
35655;BME280;21773;50.010;19.972;2023-04-28T12:02:53;98943.34;;;25.90;16.44
35655;BME280;21773;50.010;19.972;2023-04-28T12:05:56;98946.59;;;25.92;15.91
35655;BME280;21773;50.010;19.972;2023-04-28T12:09:00;98945.63;;;26.05;16.40
35655;BME280;21773;50.010;19.972;2023-04-28T12:12:08;98941.00;;;26.23;16.88
35655;BME280;21773;50.010;19.972;2023-04-28T12:15:13;98934.50;;;26.27;17.32
35655;BME280;21773;50.010;19.972;2023-04-28T12:18:17;98929.47;;;26.38;16.55
35655;BME280;21773;50.010;19.972;2023-04-28T12:21:21;98920.34;;;26.55;16.48
35655;BME280;21773;50.010;19.972;2023-04-28T12:24:24;98912.06;;;26.72;16.49
35655;BME280;21773;50.010;19.972;2023-04-28T12:27:28;98914.50;;;26.91;17.21
35655;BME280;21773;50.010;19.972;2023-04-28T12:30:35;98905.78;;;27.18;17.49
35655;BME280;21773;50.010;19.972;2023-04-28T12:33:39;98903.97;;;27.31;16.62
35655;BME280;21773;50.010;19.972;2023-04-28T12:36:43;98899.72;;;27.33;15.73
35655;BME280;21773;50.010;19.972;2023-04-28T12:39:48;98889.34;;;27.22;15.62
35655;BME280;21773;50.010;19.972;2023-04-28T12:42:52;98888.28;;;26.97;16.18
35655;BME280;21773;50.010;19.972;2023-04-28T12:45:57;98867.19;;;26.41;16.26
35655;BME280;21773;50.010;19.972;2023-04-28T12:49:01;98881.16;;;26.44;16.53
35655;BME280;21773;50.010;19.972;2023-04-28T12:52:05;98864.88;;;26.17;16.48
35655;BME280;21773;50.010;19.972;2023-04-28T12:55:09;98866.78;;;25.91;16.29
35655;BME280;21773;50.010;19.972;2023-04-28T12:58:12;98875.06;;;25.73;16.32
35655;BME280;21773;50.010;19.972;2023-04-28T13:01:17;98876.47;;;25.62;16.75
35655;BME280;21773;50.010;19.972;2023-04-28T13:04:20;98867.75;;;25.38;16.95
35655;BME280;21773;50.010;19.972;2023-04-28T13:07:24;98861.03;;;25.22;17.12
35655;BME280;21773;50.010;19.972;2023-04-28T13:10:27;98855.78;;;25.51;17.48
35655;BME280;21773;50.010;19.972;2023-04-28T13:13:30;98859.13;;;25.70;17.31
35655;BME280;21773;50.010;19.972;2023-04-28T13:16:35;98859.72;;;25.11;17.95
35655;BME280;21773;50.010;19.972;2023-04-28T13:19:39;98846.47;;;25.30;18.12
35655;BME280;21773;50.010;19.972;2023-04-28T13:22:43;98852.13;;;25.64;18.04
35655;BME280;21773;50.010;19.972;2023-04-28T13:25:46;98856.25;;;25.84;19.83
35655;BME280;21773;50.010;19.972;2023-04-28T13:28:50;98845.19;;;26.01;18.38
35655;BME280;21773;50.010;19.972;2023-04-28T13:31:55;98838.09;;;26.26;20.45
35655;BME280;21773;50.010;19.972;2023-04-28T13:34:58;98830.59;;;26.52;19.93
35655;BME280;21773;50.010;19.972;2023-04-28T13:38:02;98818.97;;;26.76;19.43
35655;BME280;21773;50.010;19.972;2023-04-28T13:41:05;98822.59;;;26.68;17.89
35655;BME280;21773;50.010;19.972;2023-04-28T13:44:09;98818.41;;;26.53;17.34
35655;BME280;21773;50.010;19.972;2023-04-28T13:47:14;98821.66;;;26.38;19.45
35655;BME280;21773;50.010;19.972;2023-04-28T13:50:17;98807.19;;;26.41;17.72
35655;BME280;21773;50.010;19.972;2023-04-28T13:53:21;98808.00;;;25.90;17.06
35655;BME280;21773;50.010;19.972;2023-04-28T13:56:24;98806.69;;;25.87;20.62
35655;BME280;21773;50.010;19.972;2023-04-28T13:59:27;98796.28;;;25.19;18.60
35655;BME280;21773;50.010;19.972;2023-04-28T14:02:32;98799.44;;;24.95;20.70
35655;BME280;21773;50.010;19.972;2023-04-28T14:05:37;98788.72;;;24.94;20.83
35655;BME280;21773;50.010;19.972;2023-04-28T14:08:50;98785.38;;;25.06;21.61
35655;BME280;21773;50.010;19.972;2023-04-28T14:11:53;98785.00;;;24.98;20.22
35655;BME280;21773;50.010;19.972;2023-04-28T14:14:57;98777.34;;;24.65;18.88
35655;BME280;21773;50.010;19.972;2023-04-28T14:18:02;98777.44;;;24.51;19.62
35655;BME280;21773;50.010;19.972;2023-04-28T14:21:05;98774.31;;;24.44;19.97
35655;BME280;21773;50.010;19.972;2023-04-28T14:24:09;98769.34;;;24.54;21.64
35655;BME280;21773;50.010;19.972;2023-04-28T14:27:13;98770.00;;;24.82;21.92
35655;BME280;21773;50.010;19.972;2023-04-28T14:30:17;98767.84;;;25.01;21.16
35655;BME280;21773;50.010;19.972;2023-04-28T14:33:22;98765.13;;;25.19;21.31
35655;BME280;21773;50.010;19.972;2023-04-28T14:36:25;98763.03;;;25.33;20.77
35655;BME280;21773;50.010;19.972;2023-04-28T14:39:29;98764.69;;;25.42;21.27
35655;BME280;21773;50.010;19.972;2023-04-28T14:42:34;98756.38;;;25.17;18.39
35655;BME280;21773;50.010;19.972;2023-04-28T15:18:51;98725.19;;;23.57;20.97
35655;BME280;21773;50.010;19.972;2023-04-28T15:21:54;98744.19;;;23.81;20.71
35655;BME280;21773;50.010;19.972;2023-04-28T15:24:59;98742.00;;;23.91;20.39
35655;BME280;21773;50.010;19.972;2023-04-28T15:28:03;98743.88;;;23.82;20.59
35655;BME280;21773;50.010;19.972;2023-04-28T15:31:08;98742.47;;;23.71;20.75
35655;BME280;21773;50.010;19.972;2023-04-28T15:34:13;98736.91;;;23.62;20.57
35655;BME280;21773;50.010;19.972;2023-04-28T15:37:43;98742.13;;;23.37;20.35
35655;BME280;21773;50.010;19.972;2023-04-28T15:40:48;98731.22;;;23.31;21.08
35655;BME280;21773;50.010;19.972;2023-04-28T15:43:51;98742.47;;;23.08;20.58
35655;BME280;21773;50.010;19.972;2023-04-28T15:46:56;98733.13;;;22.81;20.63
35655;BME280;21773;50.010;19.972;2023-04-28T15:50:01;98736.34;;;22.70;21.29
35655;BME280;21773;50.010;19.972;2023-04-28T15:53:05;98733.78;;;22.60;21.67
35655;BME280;21773;50.010;19.972;2023-04-28T15:56:09;98730.75;;;22.48;21.34
35655;BME280;21773;50.010;19.972;2023-04-28T15:59:12;98735.88;;;22.35;21.79
35655;BME280;21773;50.010;19.972;2023-04-28T16:02:20;98715.38;;;22.14;22.41
35655;BME280;21773;50.010;19.972;2023-04-28T16:05:25;98719.22;;;21.99;22.42
35655;BME280;21773;50.010;19.972;2023-04-28T16:08:29;98715.75;;;21.94;22.47
35655;BME280;21773;50.010;19.972;2023-04-28T16:11:32;98718.50;;;21.56;22.52
35655;BME280;21773;50.010;19.972;2023-04-28T16:14:36;98713.38;;;21.31;22.70
35655;BME280;21773;50.010;19.972;2023-04-28T16:17:40;98719.13;;;21.11;22.71
35655;BME280;21773;50.010;19.972;2023-04-28T16:20:47;98713.41;;;21.07;23.34
35655;BME280;21773;50.010;19.972;2023-04-28T16:23:51;98705.25;;;21.02;23.28
35655;BME280;21773;50.010;19.972;2023-04-28T16:29:57;98707.63;;;20.66;23.51
35655;BME280;21773;50.010;19.972;2023-04-28T16:33:01;98703.47;;;20.45;23.40
35655;BME280;21773;50.010;19.972;2023-04-28T16:36:05;98697.28;;;20.35;23.75
35655;BME280;21773;50.010;19.972;2023-04-28T16:39:09;98696.47;;;20.34;24.42
35655;BME280;21773;50.010;19.972;2023-04-28T16:42:13;98689.91;;;20.30;24.44
35655;BME280;21773;50.010;19.972;2023-04-28T16:45:16;98692.22;;;20.18;24.55
35655;BME280;21773;50.010;19.972;2023-04-28T16:48:19;98685.16;;;20.12;24.46